Other Surface Observations
Issued by NWS Missoula, MT

Home | Current Version | Previous Version | Text Only | Print | Product List | Glossary On
Versions: 1 2 3 4 5 6 7 8 9 10 11 12 13 14 15 16 17 18 19 20 21 22 23 24 25 26 27 28 29 30 31 32 33 34 35 36 37 38 39 40 41 42 43 44 45 46 47 48 49 50
000
SXUS55 KMSO 301023
OSOMSO
MONTANA AWOS SUMMARY
NATIONAL WEATHER SERVICE MISSOULA MT
423 AM MDT THU JUL 30 2015

Montana AWOS Reports

TWIN BRIDGES|K7S1 301015Z AUTO 00000KT 40SM 11/06 A3029 RMK AO1 T01060056
ROUNDUP     |KRPX 301015Z AUTO 00000KT 40SM 12/06 A3014 RMK AO1 T01220056
MALTA       |KM75 301015Z AUTO 00000KT 40SM 12/09 A3013 RMK AO1 T01220089
LAUREL      |K6S8 301015Z AUTO 00000KT 40SM 12/03 A3022 RMK AO1 T01170033




USA.gov is the U.S. government's official web portal to all federal, state and local government web resources and services.